sensor_id;sensor_type;location;lat;lon;timestamp;temperature;humidity
7216;DHT22;3649;48.798;9.798;2023-06-14T00:02:15;19.90;89.80
7216;DHT22;3649;48.798;9.798;2023-06-14T00:04:45;19.90;90.00
7216;DHT22;3649;48.798;9.798;2023-06-14T00:07:12;19.80;90.10
7216;DHT22;3649;48.798;9.798;2023-06-14T00:09:40;19.80;90.20
7216;DHT22;3649;48.798;9.798;2023-06-14T00:12:07;19.80;90.30
7216;DHT22;3649;48.798;9.798;2023-06-14T00:14:35;19.70;90.30
7216;DHT22;3649;48.798;9.798;2023-06-14T00:17:02;19.70;90.30
7216;DHT22;3649;48.798;9.798;2023-06-14T00:19:30;19.70;90.30
7216;DHT22;3649;48.798;9.798;2023-06-14T00:21:59;19.70;90.30
7216;DHT22;3649;48.798;9.798;2023-06-14T00:24:26;19.70;90.20
7216;DHT22;3649;48.798;9.798;2023-06-14T00:26:53;19.70;90.20
7216;DHT22;3649;48.798;9.798;2023-06-14T00:29:22;19.60;90.20
7216;DHT22;3649;48.798;9.798;2023-06-14T00:31:49;19.50;90.40
7216;DHT22;3649;48.798;9.798;2023-06-14T00:34:16;19.50;90.60
7216;DHT22;3649;48.798;9.798;2023-06-14T00:36:42;19.40;90.60
7216;DHT22;3649;48.798;9.798;2023-06-14T00:39:09;19.40;90.80
7216;DHT22;3649;48.798;9.798;2023-06-14T00:41:36;19.50;90.60
7216;DHT22;3649;48.798;9.798;2023-06-14T00:44:04;19.50;90.60
7216;DHT22;3649;48.798;9.798;2023-06-14T00:46:31;19.40;90.90
7216;DHT22;3649;48.798;9.798;2023-06-14T00:48:59;19.40;90.60
7216;DHT22;3649;48.798;9.798;2023-06-14T00:51:27;19.30;90.70
7216;DHT22;3649;48.798;9.798;2023-06-14T00:53:54;19.40;90.80
7216;DHT22;3649;48.798;9.798;2023-06-14T00:56:21;19.30;90.80
7216;DHT22;3649;48.798;9.798;2023-06-14T00:58:50;19.30;90.90
7216;DHT22;3649;48.798;9.798;2023-06-14T01:01:17;19.20;90.90
7216;DHT22;3649;48.798;9.798;2023-06-14T01:03:44;19.20;90.80
7216;DHT22;3649;48.798;9.798;2023-06-14T01:07:04;19.10;90.80
7216;DHT22;3649;48.798;9.798;2023-06-14T01:09:35;19.10;90.70
7216;DHT22;3649;48.798;9.798;2023-06-14T01:14:56;19.10;90.90
7216;DHT22;3649;48.798;9.798;2023-06-14T01:17:24;19.00;91.20
7216;DHT22;3649;48.798;9.798;2023-06-14T01:19:53;19.00;90.90
7216;DHT22;3649;48.798;9.798;2023-06-14T01:22:26;19.10;90.90
7216;DHT22;3649;48.798;9.798;2023-06-14T01:24:53;19.10;91.00
7216;DHT22;3649;48.798;9.798;2023-06-14T01:27:26;19.10;90.90
7216;DHT22;3649;48.798;9.798;2023-06-14T01:29:56;19.00;91.00
7216;DHT22;3649;48.798;9.798;2023-06-14T01:32:26;18.90;91.10
7216;DHT22;3649;48.798;9.798;2023-06-14T01:34:54;18.90;91.00
7216;DHT22;3649;48.798;9.798;2023-06-14T01:37:22;18.90;91.00
7216;DHT22;3649;48.798;9.798;2023-06-14T01:39:50;18.90;91.30
7216;DHT22;3649;48.798;9.798;2023-06-14T01:42:17;18.80;91.00
7216;DHT22;3649;48.798;9.798;2023-06-14T01:44:45;18.80;91.10
7216;DHT22;3649;48.798;9.798;2023-06-14T01:47:14;18.80;91.10
7216;DHT22;3649;48.798;9.798;2023-06-14T01:49:41;18.70;91.10
7216;DHT22;3649;48.798;9.798;2023-06-14T01:52:08;18.70;91.10
7216;DHT22;3649;48.798;9.798;2023-06-14T01:54:36;18.70;91.00
7216;DHT22;3649;48.798;9.798;2023-06-14T01:57:09;18.70;91.00
7216;DHT22;3649;48.798;9.798;2023-06-14T01:59:37;18.60;90.80
7216;DHT22;3649;48.798;9.798;2023-06-14T02:02:04;18.70;90.80
7216;DHT22;3649;48.798;9.798;2023-06-14T02:04:31;18.70;91.00
7216;DHT22;3649;48.798;9.798;2023-06-14T02:06:58;18.60;91.10
7216;DHT22;3649;48.798;9.798;2023-06-14T02:09:25;18.70;91.10
7216;DHT22;3649;48.798;9.798;2023-06-14T02:11:52;18.70;91.10
7216;DHT22;3649;48.798;9.798;2023-06-14T02:14:20;18.70;91.20
7216;DHT22;3649;48.798;9.798;2023-06-14T02:16:46;18.50;91.30
7216;DHT22;3649;48.798;9.798;2023-06-14T02:19:19;18.50;91.40
7216;DHT22;3649;48.798;9.798;2023-06-14T02:21:47;18.50;91.50
7216;DHT22;3649;48.798;9.798;2023-06-14T02:24:13;18.40;91.50
7216;DHT22;3649;48.798;9.798;2023-06-14T02:26:41;18.30;91.40
7216;DHT22;3649;48.798;9.798;2023-06-14T02:29:11;18.30;91.40
7216;DHT22;3649;48.798;9.798;2023-06-14T02:31:41;18.30;91.40
7216;DHT22;3649;48.798;9.798;2023-06-14T02:34:08;18.20;91.40
7216;DHT22;3649;48.798;9.798;2023-06-14T02:36:35;18.20;91.30
7216;DHT22;3649;48.798;9.798;2023-06-14T02:39:11;18.20;91.30
7216;DHT22;3649;48.798;9.798;2023-06-14T02:41:38;18.20;91.70
7216;DHT22;3649;48.798;9.798;2023-06-14T02:44:07;18.20;91.40
7216;DHT22;3649;48.798;9.798;2023-06-14T02:46:34;18.20;91.40
7216;DHT22;3649;48.798;9.798;2023-06-14T02:49:01;18.20;91.40
7216;DHT22;3649;48.798;9.798;2023-06-14T02:51:28;18.20;91.50
7216;DHT22;3649;48.798;9.798;2023-06-14T02:53:55;18.10;91.60
7216;DHT22;3649;48.798;9.798;2023-06-14T02:56:22;18.20;91.80
7216;DHT22;3649;48.798;9.798;2023-06-14T02:58:49;18.10;91.70
7216;DHT22;3649;48.798;9.798;2023-06-14T03:01:17;18.10;91.70
7216;DHT22;3649;48.798;9.798;2023-06-14T03:03:46;18.10;91.60
7216;DHT22;3649;48.798;9.798;2023-06-14T03:06:13;18.00;91.60
7216;DHT22;3649;48.798;9.798;2023-06-14T03:08:43;18.00;91.60
7216;DHT22;3649;48.798;9.798;2023-06-14T03:11:10;17.90;91.60
7216;DHT22;3649;48.798;9.798;2023-06-14T03:13:37;17.90;91.70
7216;DHT22;3649;48.798;9.798;2023-06-14T03:16:05;17.90;91.80
7216;DHT22;3649;48.798;9.798;2023-06-14T03:18:34;17.80;91.80
7216;DHT22;3649;48.798;9.798;2023-06-14T03:21:02;17.70;91.60
7216;DHT22;3649;48.798;9.798;2023-06-14T03:23:30;17.80;91.60
7216;DHT22;3649;48.798;9.798;2023-06-14T03:25:57;17.70;91.50
7216;DHT22;3649;48.798;9.798;2023-06-14T03:28:24;17.80;91.50
7216;DHT22;3649;48.798;9.798;2023-06-14T03:30:51;17.80;91.50
7216;DHT22;3649;48.798;9.798;2023-06-14T03:33:18;17.00;91.20
7216;DHT22;3649;48.798;9.798;2023-06-14T03:35:45;17.80;91.50
7216;DHT22;3649;48.798;9.798;2023-06-14T03:38:12;17.70;91.50
7216;DHT22;3649;48.798;9.798;2023-06-14T03:40:39;17.70;91.50
7216;DHT22;3649;48.798;9.798;2023-06-14T03:43:06;17.80;91.70
7216;DHT22;3649;48.798;9.798;2023-06-14T03:45:33;17.70;91.80
7216;DHT22;3649;48.798;9.798;2023-06-14T03:48:00;17.70;91.80
7216;DHT22;3649;48.798;9.798;2023-06-14T03:50:27;17.80;91.90
7216;DHT22;3649;48.798;9.798;2023-06-14T03:52:54;17.70;92.00
7216;DHT22;3649;48.798;9.798;2023-06-14T03:55:21;17.60;92.00
7216;DHT22;3649;48.798;9.798;2023-06-14T03:58:12;17.60;92.00
7216;DHT22;3649;48.798;9.798;2023-06-14T04:00:39;17.60;92.10
7216;DHT22;3649;48.798;9.798;2023-06-14T04:03:07;17.60;92.20
7216;DHT22;3649;48.798;9.798;2023-06-14T04:05:34;17.60;92.20
7216;DHT22;3649;48.798;9.798;2023-06-14T04:08:01;17.60;92.20
7216;DHT22;3649;48.798;9.798;2023-06-14T04:10:28;17.60;92.20
7216;DHT22;3649;48.798;9.798;2023-06-14T04:12:54;17.50;92.30
7216;DHT22;3649;48.798;9.798;2023-06-14T04:15:21;17.50;92.30
7216;DHT22;3649;48.798;9.798;2023-06-14T04:17:48;17.60;92.30
7216;DHT22;3649;48.798;9.798;2023-06-14T04:20:15;17.60;92.30
7216;DHT22;3649;48.798;9.798;2023-06-14T04:22:43;17.60;92.10
7216;DHT22;3649;48.798;9.798;2023-06-14T04:25:10;17.70;92.00
7216;DHT22;3649;48.798;9.798;2023-06-14T04:27:38;17.60;91.90
7216;DHT22;3649;48.798;9.798;2023-06-14T04:30:07;17.60;92.00
7216;DHT22;3649;48.798;9.798;2023-06-14T04:32:34;17.60;92.00
7216;DHT22;3649;48.798;9.798;2023-06-14T04:35:08;17.60;92.00
7216;DHT22;3649;48.798;9.798;2023-06-14T04:37:36;17.60;91.90
7216;DHT22;3649;48.798;9.798;2023-06-14T04:40:07;17.70;92.20
7216;DHT22;3649;48.798;9.798;2023-06-14T04:42:38;17.60;91.70
7216;DHT22;3649;48.798;9.798;2023-06-14T04:45:07;17.70;91.70
7216;DHT22;3649;48.798;9.798;2023-06-14T04:47:35;17.70;91.80
7216;DHT22;3649;48.798;9.798;2023-06-14T04:50:04;17.70;91.70
7216;DHT22;3649;48.798;9.798;2023-06-14T04:52:31;17.70;91.80
7216;DHT22;3649;48.798;9.798;2023-06-14T04:54:59;17.70;91.80
7216;DHT22;3649;48.798;9.798;2023-06-14T04:57:26;17.70;91.70
7216;DHT22;3649;48.798;9.798;2023-06-14T04:59:53;17.80;91.80
7216;DHT22;3649;48.798;9.798;2023-06-14T05:02:22;17.80;91.70
7216;DHT22;3649;48.798;9.798;2023-06-14T05:04:50;17.80;91.70
7216;DHT22;3649;48.798;9.798;2023-06-14T05:07:17;17.80;91.70
7216;DHT22;3649;48.798;9.798;2023-06-14T05:09:45;17.90;91.70
7216;DHT22;3649;48.798;9.798;2023-06-14T05:12:12;17.90;91.60
7216;DHT22;3649;48.798;9.798;2023-06-14T05:14:39;18.00;91.60
7216;DHT22;3649;48.798;9.798;2023-06-14T05:17:06;18.10;91.50
7216;DHT22;3649;48.798;9.798;2023-06-14T05:19:33;18.10;91.50
7216;DHT22;3649;48.798;9.798;2023-06-14T05:22:00;18.20;91.50
7216;DHT22;3649;48.798;9.798;2023-06-14T05:24:27;18.30;91.50
7216;DHT22;3649;48.798;9.798;2023-06-14T05:26:57;18.50;91.50
7216;DHT22;3649;48.798;9.798;2023-06-14T05:29:24;18.60;91.50
7216;DHT22;3649;48.798;9.798;2023-06-14T05:31:55;18.70;91.40
7216;DHT22;3649;48.798;9.798;2023-06-14T05:34:22;18.80;91.40
7216;DHT22;3649;48.798;9.798;2023-06-14T05:36:49;18.80;91.50
7216;DHT22;3649;48.798;9.798;2023-06-14T05:39:16;18.90;91.50
7216;DHT22;3649;48.798;9.798;2023-06-14T05:41:43;18.90;91.40
7216;DHT22;3649;48.798;9.798;2023-06-14T05:44:10;19.00;91.20
7216;DHT22;3649;48.798;9.798;2023-06-14T05:46:37;19.00;91.20
7216;DHT22;3649;48.798;9.798;2023-06-14T05:49:06;19.10;91.20
7216;DHT22;3649;48.798;9.798;2023-06-14T05:51:34;19.20;91.30
7216;DHT22;3649;48.798;9.798;2023-06-14T05:54:01;19.30;91.30
7216;DHT22;3649;48.798;9.798;2023-06-14T05:56:28;19.30;91.20
7216;DHT22;3649;48.798;9.798;2023-06-14T05:58:55;19.40;91.20
7216;DHT22;3649;48.798;9.798;2023-06-14T06:01:22;19.50;91.20
7216;DHT22;3649;48.798;9.798;2023-06-14T06:03:49;19.60;91.20
7216;DHT22;3649;48.798;9.798;2023-06-14T06:06:16;19.70;91.20
7216;DHT22;3649;48.798;9.798;2023-06-14T06:08:43;19.80;91.20
7216;DHT22;3649;48.798;9.798;2023-06-14T06:11:10;19.90;91.10
7216;DHT22;3649;48.798;9.798;2023-06-14T06:13:38;20.00;91.10
7216;DHT22;3649;48.798;9.798;2023-06-14T06:16:06;20.10;91.10
7216;DHT22;3649;48.798;9.798;2023-06-14T06:18:33;20.20;91.00
7216;DHT22;3649;48.798;9.798;2023-06-14T06:21:01;20.30;90.90
7216;DHT22;3649;48.798;9.798;2023-06-14T06:23:29;20.40;90.80
7216;DHT22;3649;48.798;9.798;2023-06-14T06:25:56;20.60;90.80
7216;DHT22;3649;48.798;9.798;2023-06-14T06:28:23;20.70;90.60
7216;DHT22;3649;48.798;9.798;2023-06-14T06:30:50;20.70;90.50
7216;DHT22;3649;48.798;9.798;2023-06-14T06:33:17;20.80;90.30
7216;DHT22;3649;48.798;9.798;2023-06-14T06:35:44;20.90;90.20
7216;DHT22;3649;48.798;9.798;2023-06-14T06:38:12;21.10;90.20
7216;DHT22;3649;48.798;9.798;2023-06-14T06:40:39;21.10;90.00
7216;DHT22;3649;48.798;9.798;2023-06-14T06:43:06;21.30;89.40
7216;DHT22;3649;48.798;9.798;2023-06-14T06:45:32;21.40;89.20
7216;DHT22;3649;48.798;9.798;2023-06-14T06:47:59;21.50;89.10
7216;DHT22;3649;48.798;9.798;2023-06-14T06:50:27;21.70;89.00
7216;DHT22;3649;48.798;9.798;2023-06-14T06:52:54;22.00;88.70
7216;DHT22;3649;48.798;9.798;2023-06-14T06:55:21;22.20;87.80
7216;DHT22;3649;48.798;9.798;2023-06-14T06:57:48;22.30;87.60
7216;DHT22;3649;48.798;9.798;2023-06-14T07:00:17;22.40;87.70
7216;DHT22;3649;48.798;9.798;2023-06-14T07:02:45;22.50;87.50
7216;DHT22;3649;48.798;9.798;2023-06-14T07:05:12;22.70;86.70
7216;DHT22;3649;48.798;9.798;2023-06-14T07:07:40;22.70;86.40
7216;DHT22;3649;48.798;9.798;2023-06-14T07:10:07;22.80;86.40
7216;DHT22;3649;48.798;9.798;2023-06-14T07:12:34;23.00;86.20
7216;DHT22;3649;48.798;9.798;2023-06-14T07:15:07;23.10;85.80
7216;DHT22;3649;48.798;9.798;2023-06-14T07:17:35;23.20;85.50
7216;DHT22;3649;48.798;9.798;2023-06-14T07:20:03;23.30;85.70
7216;DHT22;3649;48.798;9.798;2023-06-14T07:22:34;23.30;85.80
7216;DHT22;3649;48.798;9.798;2023-06-14T07:25:01;23.30;86.10
7216;DHT22;3649;48.798;9.798;2023-06-14T07:27:29;23.20;86.00
7216;DHT22;3649;48.798;9.798;2023-06-14T07:29:56;23.30;86.00
7216;DHT22;3649;48.798;9.798;2023-06-14T07:32:23;23.50;86.00
7216;DHT22;3649;48.798;9.798;2023-06-14T07:34:50;23.50;85.80
7216;DHT22;3649;48.798;9.798;2023-06-14T07:37:17;23.50;85.70
7216;DHT22;3649;48.798;9.798;2023-06-14T07:39:45;23.50;85.60
7216;DHT22;3649;48.798;9.798;2023-06-14T07:42:12;23.60;85.70
7216;DHT22;3649;48.798;9.798;2023-06-14T07:44:39;23.80;85.50
7216;DHT22;3649;48.798;9.798;2023-06-14T07:47:06;24.10;84.80
7216;DHT22;3649;48.798;9.798;2023-06-14T07:49:33;24.20;84.70
7216;DHT22;3649;48.798;9.798;2023-06-14T07:52:00;24.30;84.50
7216;DHT22;3649;48.798;9.798;2023-06-14T07:54:27;24.40;83.90
7216;DHT22;3649;48.798;9.798;2023-06-14T07:56:54;24.40;82.80
7216;DHT22;3649;48.798;9.798;2023-06-14T07:59:22;24.30;82.20
7216;DHT22;3649;48.798;9.798;2023-06-14T08:01:49;24.10;82.70
7216;DHT22;3649;48.798;9.798;2023-06-14T08:04:16;24.10;82.10
7216;DHT22;3649;48.798;9.798;2023-06-14T08:06:43;24.20;82.20
7216;DHT22;3649;48.798;9.798;2023-06-14T08:09:15;24.20;82.10
7216;DHT22;3649;48.798;9.798;2023-06-14T08:11:42;24.20;81.60
7216;DHT22;3649;48.798;9.798;2023-06-14T08:14:09;24.20;82.20
7216;DHT22;3649;48.798;9.798;2023-06-14T08:16:35;24.20;82.00
7216;DHT22;3649;48.798;9.798;2023-06-14T08:19:03;24.30;82.40
7216;DHT22;3649;48.798;9.798;2023-06-14T08:21:30;24.40;82.40
7216;DHT22;3649;48.798;9.798;2023-06-14T08:24:00;24.50;81.80
7216;DHT22;3649;48.798;9.798;2023-06-14T08:26:27;24.40;82.10
7216;DHT22;3649;48.798;9.798;2023-06-14T08:28:56;24.50;82.70
7216;DHT22;3649;48.798;9.798;2023-06-14T08:31:23;24.50;82.60
7216;DHT22;3649;48.798;9.798;2023-06-14T08:33:50;24.50;82.70
7216;DHT22;3649;48.798;9.798;2023-06-14T08:36:18;24.70;82.40
7216;DHT22;3649;48.798;9.798;2023-06-14T08:38:44;24.70;82.10
7216;DHT22;3649;48.798;9.798;2023-06-14T08:41:13;24.70;81.80
7216;DHT22;3649;48.798;9.798;2023-06-14T08:43:47;24.70;81.80
7216;DHT22;3649;48.798;9.798;2023-06-14T08:46:17;24.80;82.00
7216;DHT22;3649;48.798;9.798;2023-06-14T08:48:48;24.80;81.80
7216;DHT22;3649;48.798;9.798;2023-06-14T08:51:19;24.80;82.80
7216;DHT22;3649;48.798;9.798;2023-06-14T08:53:53;23.40;81.10
7216;DHT22;3649;48.798;9.798;2023-06-14T08:56:28;24.80;82.60
7216;DHT22;3649;48.798;9.798;2023-06-14T08:58:59;24.80;82.80
7216;DHT22;3649;48.798;9.798;2023-06-14T09:01:36;24.90;82.80
7216;DHT22;3649;48.798;9.798;2023-06-14T09:04:03;25.00;82.80
7216;DHT22;3649;48.798;9.798;2023-06-14T09:06:32;24.90;82.00
7216;DHT22;3649;48.798;9.798;2023-06-14T09:08:59;24.90;82.10
7216;DHT22;3649;48.798;9.798;2023-06-14T09:11:26;24.90;82.60
7216;DHT22;3649;48.798;9.798;2023-06-14T09:13:54;25.00;82.90
7216;DHT22;3649;48.798;9.798;2023-06-14T09:16:21;25.00;83.00
7216;DHT22;3649;48.798;9.798;2023-06-14T09:18:49;24.90;82.50
7216;DHT22;3649;48.798;9.798;2023-06-14T09:21:17;24.90;81.50
7216;DHT22;3649;48.798;9.798;2023-06-14T09:23:46;24.80;81.90
7216;DHT22;3649;48.798;9.798;2023-06-14T09:26:16;24.80;81.90
7216;DHT22;3649;48.798;9.798;2023-06-14T09:28:43;24.80;81.00
7216;DHT22;3649;48.798;9.798;2023-06-14T09:31:14;24.80;80.30
7216;DHT22;3649;48.798;9.798;2023-06-14T09:33:42;24.80;80.20
7216;DHT22;3649;48.798;9.798;2023-06-14T09:36:22;24.90;80.70
7216;DHT22;3649;48.798;9.798;2023-06-14T09:38:59;24.80;80.10
7216;DHT22;3649;48.798;9.798;2023-06-14T09:41:38;24.70;80.00
7216;DHT22;3649;48.798;9.798;2023-06-14T09:44:08;24.60;80.20
7216;DHT22;3649;48.798;9.798;2023-06-14T09:46:41;24.70;79.20
7216;DHT22;3649;48.798;9.798;2023-06-14T09:49:08;24.60;80.00
7216;DHT22;3649;48.798;9.798;2023-06-14T09:51:42;24.70;78.40
7216;DHT22;3649;48.798;9.798;2023-06-14T09:54:15;24.70;78.80
7216;DHT22;3649;48.798;9.798;2023-06-14T09:56:45;24.60;79.10
7216;DHT22;3649;48.798;9.798;2023-06-14T09:59:13;24.70;79.50
7216;DHT22;3649;48.798;9.798;2023-06-14T10:01:42;24.70;79.50
7216;DHT22;3649;48.798;9.798;2023-06-14T10:04:10;24.80;79.40
7216;DHT22;3649;48.798;9.798;2023-06-14T10:06:43;24.80;78.60
7216;DHT22;3649;48.798;9.798;2023-06-14T10:09:10;24.80;78.60
7216;DHT22;3649;48.798;9.798;2023-06-14T10:11:38;24.80;78.80
7216;DHT22;3649;48.798;9.798;2023-06-14T10:14:14;24.90;79.70
7216;DHT22;3649;48.798;9.798;2023-06-14T10:17:00;24.90;78.20
7216;DHT22;3649;48.798;9.798;2023-06-14T10:19:37;24.80;77.10
7216;DHT22;3649;48.798;9.798;2023-06-14T10:22:21;24.70;77.90
7216;DHT22;3649;48.798;9.798;2023-06-14T10:24:51;24.70;77.30
7216;DHT22;3649;48.798;9.798;2023-06-14T10:27:18;24.70;77.80
7216;DHT22;3649;48.798;9.798;2023-06-14T10:32:21;24.80;77.50
7216;DHT22;3649;48.798;9.798;2023-06-14T10:35:20;24.90;77.10
7216;DHT22;3649;48.798;9.798;2023-06-14T10:37:47;24.80;77.70
7216;DHT22;3649;48.798;9.798;2023-06-14T10:40:30;24.90;77.80
7216;DHT22;3649;48.798;9.798;2023-06-14T10:42:57;24.90;77.40
7216;DHT22;3649;48.798;9.798;2023-06-14T10:45:24;24.90;77.50
7216;DHT22;3649;48.798;9.798;2023-06-14T10:47:51;24.90;76.50
7216;DHT22;3649;48.798;9.798;2023-06-14T10:50:27;25.00;77.60
7216;DHT22;3649;48.798;9.798;2023-06-14T10:52:57;24.90;76.60
7216;DHT22;3649;48.798;9.798;2023-06-14T10:55:24;24.90;76.70
7216;DHT22;3649;48.798;9.798;2023-06-14T10:57:55;24.90;76.20
7216;DHT22;3649;48.798;9.798;2023-06-14T11:00:27;24.90;75.90
7216;DHT22;3649;48.798;9.798;2023-06-14T11:05:54;25.00;76.00
7216;DHT22;3649;48.798;9.798;2023-06-14T11:11:10;24.90;76.20
7216;DHT22;3649;48.798;9.798;2023-06-14T11:13:41;24.90;76.90
7216;DHT22;3649;48.798;9.798;2023-06-14T11:16:16;24.90;76.60
7216;DHT22;3649;48.798;9.798;2023-06-14T11:18:44;24.90;77.20
7216;DHT22;3649;48.798;9.798;2023-06-14T11:21:18;24.90;76.80
7216;DHT22;3649;48.798;9.798;2023-06-14T11:23:50;24.80;76.70
7216;DHT22;3649;48.798;9.798;2023-06-14T11:26:25;24.90;77.00
7216;DHT22;3649;48.798;9.798;2023-06-14T11:29:00;25.00;77.00
7216;DHT22;3649;48.798;9.798;2023-06-14T11:31:28;25.00;76.90
7216;DHT22;3649;48.798;9.798;2023-06-14T11:33:58;25.10;76.70
7216;DHT22;3649;48.798;9.798;2023-06-14T11:36:29;25.10;75.70
7216;DHT22;3649;48.798;9.798;2023-06-14T11:39:02;25.20;76.70
7216;DHT22;3649;48.798;9.798;2023-06-14T11:41:45;25.20;77.40
7216;DHT22;3649;48.798;9.798;2023-06-14T11:44:12;25.20;78.10
7216;DHT22;3649;48.798;9.798;2023-06-14T11:46:39;25.20;78.60
7216;DHT22;3649;48.798;9.798;2023-06-14T11:49:07;25.10;77.50
7216;DHT22;3649;48.798;9.798;2023-06-14T11:51:36;25.10;75.80
7216;DHT22;3649;48.798;9.798;2023-06-14T11:54:04;25.20;75.90
7216;DHT22;3649;48.798;9.798;2023-06-14T11:56:32;25.10;75.30
7216;DHT22;3649;48.798;9.798;2023-06-14T11:59:00;25.10;75.50
7216;DHT22;3649;48.798;9.798;2023-06-14T12:01:30;25.10;75.50
7216;DHT22;3649;48.798;9.798;2023-06-14T12:03:59;25.10;75.60
7216;DHT22;3649;48.798;9.798;2023-06-14T12:06:28;25.10;77.00
7216;DHT22;3649;48.798;9.798;2023-06-14T12:08:58;25.20;77.70
7216;DHT22;3649;48.798;9.798;2023-06-14T12:11:32;25.30;78.30
7216;DHT22;3649;48.798;9.798;2023-06-14T12:14:00;25.50;78.30
7216;DHT22;3649;48.798;9.798;2023-06-14T12:16:33;25.50;78.20
7216;DHT22;3649;48.798;9.798;2023-06-14T12:19:09;25.50;78.30
7216;DHT22;3649;48.798;9.798;2023-06-14T12:21:38;25.50;78.70
7216;DHT22;3649;48.798;9.798;2023-06-14T12:24:08;25.50;77.90
7216;DHT22;3649;48.798;9.798;2023-06-14T12:26:38;25.50;76.70
7216;DHT22;3649;48.798;9.798;2023-06-14T12:29:06;25.50;76.00
7216;DHT22;3649;48.798;9.798;2023-06-14T12:31:34;25.50;75.60
7216;DHT22;3649;48.798;9.798;2023-06-14T12:34:01;25.50;74.90
7216;DHT22;3649;48.798;9.798;2023-06-14T12:36:28;25.50;73.50
7216;DHT22;3649;48.798;9.798;2023-06-14T12:38:56;25.50;74.00
7216;DHT22;3649;48.798;9.798;2023-06-14T12:41:23;25.70;74.40
7216;DHT22;3649;48.798;9.798;2023-06-14T12:43:51;25.70;76.80
7216;DHT22;3649;48.798;9.798;2023-06-14T12:46:18;25.70;75.50
7216;DHT22;3649;48.798;9.798;2023-06-14T12:48:45;25.70;75.10
7216;DHT22;3649;48.798;9.798;2023-06-14T12:51:12;25.70;74.80
7216;DHT22;3649;48.798;9.798;2023-06-14T12:53:39;25.80;74.80
7216;DHT22;3649;48.798;9.798;2023-06-14T12:56:06;25.90;75.20
7216;DHT22;3649;48.798;9.798;2023-06-14T12:58:33;25.90;75.30
7216;DHT22;3649;48.798;9.798;2023-06-14T13:01:00;25.90;74.70
7216;DHT22;3649;48.798;9.798;2023-06-14T13:03:27;26.00;74.90
7216;DHT22;3649;48.798;9.798;2023-06-14T13:05:54;26.00;74.80
7216;DHT22;3649;48.798;9.798;2023-06-14T13:08:22;26.00;74.80
7216;DHT22;3649;48.798;9.798;2023-06-14T13:10:51;25.90;74.90
7216;DHT22;3649;48.798;9.798;2023-06-14T13:13:18;25.90;75.00
7216;DHT22;3649;48.798;9.798;2023-06-14T13:15:45;25.80;75.10
7216;DHT22;3649;48.798;9.798;2023-06-14T13:18:12;25.80;76.00
7216;DHT22;3649;48.798;9.798;2023-06-14T13:20:39;25.80;75.00
7216;DHT22;3649;48.798;9.798;2023-06-14T13:23:07;25.70;75.30
7216;DHT22;3649;48.798;9.798;2023-06-14T13:25:35;25.70;75.20
7216;DHT22;3649;48.798;9.798;2023-06-14T13:28:04;25.80;75.40
7216;DHT22;3649;48.798;9.798;2023-06-14T13:30:32;25.80;75.70
7216;DHT22;3649;48.798;9.798;2023-06-14T13:32:59;25.80;75.60
7216;DHT22;3649;48.798;9.798;2023-06-14T13:35:26;25.80;75.20
7216;DHT22;3649;48.798;9.798;2023-06-14T13:37:54;25.80;75.10
7216;DHT22;3649;48.798;9.798;2023-06-14T13:40:21;25.80;75.00
7216;DHT22;3649;48.798;9.798;2023-06-14T13:42:48;25.80;74.70
7216;DHT22;3649;48.798;9.798;2023-06-14T13:45:15;25.80;74.80
7216;DHT22;3649;48.798;9.798;2023-06-14T13:47:42;26.00;74.10
7216;DHT22;3649;48.798;9.798;2023-06-14T13:50:09;26.10;75.00
7216;DHT22;3649;48.798;9.798;2023-06-14T13:52:36;26.10;74.70
7216;DHT22;3649;48.798;9.798;2023-06-14T13:55:04;26.30;74.10
7216;DHT22;3649;48.798;9.798;2023-06-14T13:57:31;26.30;74.30
7216;DHT22;3649;48.798;9.798;2023-06-14T13:59:59;26.30;74.40
7216;DHT22;3649;48.798;9.798;2023-06-14T14:02:29;26.30;74.20
7216;DHT22;3649;48.798;9.798;2023-06-14T14:04:56;26.20;74.20
7216;DHT22;3649;48.798;9.798;2023-06-14T14:07:24;26.20;74.40
7216;DHT22;3649;48.798;9.798;2023-06-14T14:09:51;26.30;75.80
7216;DHT22;3649;48.798;9.798;2023-06-14T14:12:20;26.20;75.10
7216;DHT22;3649;48.798;9.798;2023-06-14T14:14:47;26.20;75.10
7216;DHT22;3649;48.798;9.798;2023-06-14T14:17:14;26.20;75.70
7216;DHT22;3649;48.798;9.798;2023-06-14T14:19:41;26.10;75.20
7216;DHT22;3649;48.798;9.798;2023-06-14T14:22:08;26.00;75.80
7216;DHT22;3649;48.798;9.798;2023-06-14T14:24:36;26.00;75.40
7216;DHT22;3649;48.798;9.798;2023-06-14T14:27:03;26.00;75.70
7216;DHT22;3649;48.798;9.798;2023-06-14T14:29:30;25.90;75.80
7216;DHT22;3649;48.798;9.798;2023-06-14T14:31:57;25.90;76.00
7216;DHT22;3649;48.798;9.798;2023-06-14T14:34:24;25.90;76.00
7216;DHT22;3649;48.798;9.798;2023-06-14T14:36:51;25.80;76.30
7216;DHT22;3649;48.798;9.798;2023-06-14T14:39:18;25.80;76.40
7216;DHT22;3649;48.798;9.798;2023-06-14T14:41:45;25.80;76.30
7216;DHT22;3649;48.798;9.798;2023-06-14T14:44:12;25.90;76.40
7216;DHT22;3649;48.798;9.798;2023-06-14T14:46:39;25.90;76.40
7216;DHT22;3649;48.798;9.798;2023-06-14T14:49:06;25.90;76.20
7216;DHT22;3649;48.798;9.798;2023-06-14T14:51:33;25.90;76.00
7216;DHT22;3649;48.798;9.798;2023-06-14T14:54:00;25.80;76.00
7216;DHT22;3649;48.798;9.798;2023-06-14T14:56:27;25.80;76.40
7216;DHT22;3649;48.798;9.798;2023-06-14T14:58:54;25.80;76.40
7216;DHT22;3649;48.798;9.798;2023-06-14T15:01:21;25.70;76.80
7216;DHT22;3649;48.798;9.798;2023-06-14T15:03:48;25.70;76.90
7216;DHT22;3649;48.798;9.798;2023-06-14T15:06:25;25.60;76.80
7216;DHT22;3649;48.798;9.798;2023-06-14T15:08:52;25.60;76.90
7216;DHT22;3649;48.798;9.798;2023-06-14T15:11:19;25.60;76.60
7216;DHT22;3649;48.798;9.798;2023-06-14T15:13:47;25.50;76.70
7216;DHT22;3649;48.798;9.798;2023-06-14T15:16:15;25.50;77.30
7216;DHT22;3649;48.798;9.798;2023-06-14T15:18:42;25.50;77.20
7216;DHT22;3649;48.798;9.798;2023-06-14T15:21:09;25.50;77.40
7216;DHT22;3649;48.798;9.798;2023-06-14T15:23:36;25.50;77.50
7216;DHT22;3649;48.798;9.798;2023-06-14T15:26:03;25.50;77.60
7216;DHT22;3649;48.798;9.798;2023-06-14T15:28:30;25.50;77.30
7216;DHT22;3649;48.798;9.798;2023-06-14T15:30:59;25.50;77.30
7216;DHT22;3649;48.798;9.798;2023-06-14T15:33:27;25.50;77.60
7216;DHT22;3649;48.798;9.798;2023-06-14T15:35:54;25.50;77.80
7216;DHT22;3649;48.798;9.798;2023-06-14T15:38:21;25.50;78.50
7216;DHT22;3649;48.798;9.798;2023-06-14T15:40:49;25.50;78.10
7216;DHT22;3649;48.798;9.798;2023-06-14T15:43:18;25.50;78.10
7216;DHT22;3649;48.798;9.798;2023-06-14T15:45:45;25.50;78.30
7216;DHT22;3649;48.798;9.798;2023-06-14T15:48:12;25.50;78.10
7216;DHT22;3649;48.798;9.798;2023-06-14T15:50:39;25.40;77.70
7216;DHT22;3649;48.798;9.798;2023-06-14T15:53:06;25.40;77.30
7216;DHT22;3649;48.798;9.798;2023-06-14T15:55:33;25.40;77.10
7216;DHT22;3649;48.798;9.798;2023-06-14T15:58:00;25.40;77.20
7216;DHT22;3649;48.798;9.798;2023-06-14T16:00:27;25.40;77.30
7216;DHT22;3649;48.798;9.798;2023-06-14T16:02:54;25.40;77.40
7216;DHT22;3649;48.798;9.798;2023-06-14T16:05:21;25.50;77.30
7216;DHT22;3649;48.798;9.798;2023-06-14T16:07:48;25.50;76.90
7216;DHT22;3649;48.798;9.798;2023-06-14T16:10:15;25.50;76.70
7216;DHT22;3649;48.798;9.798;2023-06-14T16:12:43;25.50;77.30
7216;DHT22;3649;48.798;9.798;2023-06-14T16:15:10;25.50;77.10
7216;DHT22;3649;48.798;9.798;2023-06-14T16:17:37;25.60;76.90
7216;DHT22;3649;48.798;9.798;2023-06-14T16:20:04;25.60;77.10
7216;DHT22;3649;48.798;9.798;2023-06-14T16:22:32;25.60;77.00